sensor_id;sensor_type;location;lat;lon;timestamp;pressure;altitude;pressure_sealevel;temperature;humidity
40073;BME280;25774;52.256;9.356;2023-01-09T00:02:12;98512.97;;;7.98;100.00
40073;BME280;25774;52.256;9.356;2023-01-09T00:04:38;98503.41;;;7.97;100.00
40073;BME280;25774;52.256;9.356;2023-01-09T00:07:04;98503.84;;;7.90;100.00
40073;BME280;25774;52.256;9.356;2023-01-09T00:09:30;98515.91;;;7.93;100.00
40073;BME280;25774;52.256;9.356;2023-01-09T00:11:57;98513.34;;;8.04;100.00
40073;BME280;25774;52.256;9.356;2023-01-09T00:14:22;98507.47;;;8.01;100.00
40073;BME280;25774;52.256;9.356;2023-01-09T00:16:48;98501.28;;;8.02;100.00
40073;BME280;25774;52.256;9.356;2023-01-09T00:19:15;98505.56;;;8.03;100.00
40073;BME280;25774;52.256;9.356;2023-01-09T00:21:40;98501.88;;;8.05;100.00
40073;BME280;25774;52.256;9.356;2023-01-09T00:24:06;98502.91;;;7.91;100.00
40073;BME280;25774;52.256;9.356;2023-01-09T00:26:32;98501.72;;;7.96;100.00
40073;BME280;25774;52.256;9.356;2023-01-09T00:28:57;98505.00;;;8.10;100.00
40073;BME280;25774;52.256;9.356;2023-01-09T00:31:22;98489.25;;;8.10;100.00
40073;BME280;25774;52.256;9.356;2023-01-09T00:34:01;98491.97;;;8.09;100.00
40073;BME280;25774;52.256;9.356;2023-01-09T00:36:27;98474.41;;;8.09;100.00
40073;BME280;25774;52.256;9.356;2023-01-09T00:38:52;98466.19;;;8.14;100.00
40073;BME280;25774;52.256;9.356;2023-01-09T00:41:22;98464.13;;;8.06;100.00
40073;BME280;25774;52.256;9.356;2023-01-09T00:43:50;98460.81;;;8.15;100.00
40073;BME280;25774;52.256;9.356;2023-01-09T00:46:20;98457.34;;;8.15;100.00
40073;BME280;25774;52.256;9.356;2023-01-09T00:48:48;98459.88;;;8.28;100.00
40073;BME280;25774;52.256;9.356;2023-01-09T00:51:14;98449.94;;;8.09;100.00
40073;BME280;25774;52.256;9.356;2023-01-09T00:53:42;98447.78;;;8.03;100.00
40073;BME280;25774;52.256;9.356;2023-01-09T00:56:08;98447.53;;;8.06;100.00
40073;BME280;25774;52.256;9.356;2023-01-09T00:58:36;98442.53;;;8.03;100.00
40073;BME280;25774;52.256;9.356;2023-01-09T01:01:02;98446.34;;;8.10;100.00
40073;BME280;25774;52.256;9.356;2023-01-09T01:03:27;98440.38;;;8.08;100.00
40073;BME280;25774;52.256;9.356;2023-01-09T01:05:53;98432.84;;;8.03;100.00
40073;BME280;25774;52.256;9.356;2023-01-09T01:08:37;98446.47;;;8.08;100.00
40073;BME280;25774;52.256;9.356;2023-01-09T01:11:04;98433.69;;;8.04;100.00
40073;BME280;25774;52.256;9.356;2023-01-09T01:13:30;98439.16;;;8.01;100.00
40073;BME280;25774;52.256;9.356;2023-01-09T01:15:56;98456.84;;;8.10;100.00
40073;BME280;25774;52.256;9.356;2023-01-09T01:18:21;98456.28;;;8.18;100.00
40073;BME280;25774;52.256;9.356;2023-01-09T01:20:46;98450.16;;;8.06;100.00
40073;BME280;25774;52.256;9.356;2023-01-09T01:23:12;98445.38;;;8.00;100.00
40073;BME280;25774;52.256;9.356;2023-01-09T01:25:39;98459.94;;;8.04;100.00
40073;BME280;25774;52.256;9.356;2023-01-09T01:28:05;98469.28;;;8.08;100.00
40073;BME280;25774;52.256;9.356;2023-01-09T01:30:31;98462.84;;;8.12;100.00
40073;BME280;25774;52.256;9.356;2023-01-09T01:32:57;98477.41;;;8.16;100.00
40073;BME280;25774;52.256;9.356;2023-01-09T01:35:22;98472.16;;;8.16;100.00
40073;BME280;25774;52.256;9.356;2023-01-09T01:37:47;98469.66;;;8.14;100.00
40073;BME280;25774;52.256;9.356;2023-01-09T01:40:15;98459.25;;;8.02;100.00
40073;BME280;25774;52.256;9.356;2023-01-09T01:42:48;98460.31;;;7.99;100.00
40073;BME280;25774;52.256;9.356;2023-01-09T01:45:22;98469.53;;;8.05;100.00
40073;BME280;25774;52.256;9.356;2023-01-09T01:48:05;98470.09;;;7.97;100.00
40073;BME280;25774;52.256;9.356;2023-01-09T01:50:47;98478.22;;;8.05;100.00
40073;BME280;25774;52.256;9.356;2023-01-09T01:55:44;98469.69;;;7.79;100.00
40073;BME280;25774;52.256;9.356;2023-01-09T01:58:13;98466.84;;;7.82;100.00
40073;BME280;25774;52.256;9.356;2023-01-09T02:00:42;98471.94;;;7.73;100.00
40073;BME280;25774;52.256;9.356;2023-01-09T02:03:09;98493.03;;;7.95;100.00
40073;BME280;25774;52.256;9.356;2023-01-09T02:05:35;98489.06;;;8.01;100.00
40073;BME280;25774;52.256;9.356;2023-01-09T02:08:03;98497.59;;;8.04;100.00
40073;BME280;25774;52.256;9.356;2023-01-09T02:10:29;98488.88;;;8.15;100.00
40073;BME280;25774;52.256;9.356;2023-01-09T02:12:55;98485.75;;;8.10;100.00
40073;BME280;25774;52.256;9.356;2023-01-09T02:15:21;98493.16;;;8.05;100.00
40073;BME280;25774;52.256;9.356;2023-01-09T02:18:09;98502.84;;;8.15;100.00
40073;BME280;25774;52.256;9.356;2023-01-09T02:20:49;98498.56;;;8.26;100.00
40073;BME280;25774;52.256;9.356;2023-01-09T02:40:24;98492.72;;;8.22;100.00
40073;BME280;25774;52.256;9.356;2023-01-09T02:42:52;98494.88;;;8.28;100.00
40073;BME280;25774;52.256;9.356;2023-01-09T02:45:20;98502.81;;;8.40;100.00
40073;BME280;25774;52.256;9.356;2023-01-09T02:47:46;98498.25;;;8.42;100.00
40073;BME280;25774;52.256;9.356;2023-01-09T02:50:35;98506.28;;;8.63;100.00
40073;BME280;25774;52.256;9.356;2023-01-09T02:56:04;98501.63;;;8.77;100.00
40073;BME280;25774;52.256;9.356;2023-01-09T02:59:10;98485.13;;;8.75;100.00
40073;BME280;25774;52.256;9.356;2023-01-09T03:01:54;98490.63;;;8.72;100.00
40073;BME280;25774;52.256;9.356;2023-01-09T03:07:33;98469.19;;;8.32;100.00
40073;BME280;25774;52.256;9.356;2023-01-09T03:10:24;98472.00;;;7.95;100.00
40073;BME280;25774;52.256;9.356;2023-01-09T03:12:52;98475.28;;;8.21;100.00
40073;BME280;25774;52.256;9.356;2023-01-09T03:15:22;98468.81;;;8.14;100.00
40073;BME280;25774;52.256;9.356;2023-01-09T03:17:49;98474.78;;;8.16;100.00
40073;BME280;25774;52.256;9.356;2023-01-09T03:20:20;98458.50;;;7.88;100.00
40073;BME280;25774;52.256;9.356;2023-01-09T03:22:57;98474.41;;;7.98;100.00
40073;BME280;25774;52.256;9.356;2023-01-09T03:25:24;98478.88;;;8.20;100.00
40073;BME280;25774;52.256;9.356;2023-01-09T03:28:01;98473.34;;;8.12;100.00
40073;BME280;25774;52.256;9.356;2023-01-09T03:30:28;98467.38;;;8.10;100.00
40073;BME280;25774;52.256;9.356;2023-01-09T03:32:54;98478.50;;;8.25;100.00
40073;BME280;25774;52.256;9.356;2023-01-09T03:35:21;98470.69;;;8.01;100.00
40073;BME280;25774;52.256;9.356;2023-01-09T03:37:46;98463.94;;;7.74;100.00
40073;BME280;25774;52.256;9.356;2023-01-09T03:40:11;98483.94;;;7.99;100.00
40073;BME280;25774;52.256;9.356;2023-01-09T03:42:38;98481.69;;;8.06;100.00
40073;BME280;25774;52.256;9.356;2023-01-09T03:45:04;98479.56;;;8.11;100.00
40073;BME280;25774;52.256;9.356;2023-01-09T03:47:29;98463.91;;;8.09;100.00
40073;BME280;25774;52.256;9.356;2023-01-09T03:49:55;98468.91;;;8.12;100.00
40073;BME280;25774;52.256;9.356;2023-01-09T03:52:20;98460.66;;;7.95;100.00
40073;BME280;25774;52.256;9.356;2023-01-09T03:54:45;98449.75;;;7.88;100.00
40073;BME280;25774;52.256;9.356;2023-01-09T03:57:11;98441.56;;;7.92;100.00
40073;BME280;25774;52.256;9.356;2023-01-09T03:59:36;98433.63;;;7.81;100.00
40073;BME280;25774;52.256;9.356;2023-01-09T04:02:01;98416.75;;;7.61;100.00
40073;BME280;25774;52.256;9.356;2023-01-09T04:04:27;98414.22;;;7.49;100.00
40073;BME280;25774;52.256;9.356;2023-01-09T04:06:52;98412.56;;;7.59;100.00
40073;BME280;25774;52.256;9.356;2023-01-09T04:09:17;98409.47;;;7.54;100.00
40073;BME280;25774;52.256;9.356;2023-01-09T04:11:42;98402.28;;;7.56;100.00
40073;BME280;25774;52.256;9.356;2023-01-09T04:14:08;98397.03;;;7.56;100.00
40073;BME280;25774;52.256;9.356;2023-01-09T04:16:33;98378.66;;;7.44;100.00
40073;BME280;25774;52.256;9.356;2023-01-09T04:18:59;98393.13;;;7.61;100.00
40073;BME280;25774;52.256;9.356;2023-01-09T04:21:24;98396.88;;;7.70;100.00
40073;BME280;25774;52.256;9.356;2023-01-09T04:23:50;98402.38;;;7.89;100.00
40073;BME280;25774;52.256;9.356;2023-01-09T04:26:15;98398.69;;;8.03;100.00
40073;BME280;25774;52.256;9.356;2023-01-09T04:28:40;98391.72;;;7.68;100.00
40073;BME280;25774;52.256;9.356;2023-01-09T04:31:06;98376.19;;;7.54;100.00
40073;BME280;25774;52.256;9.356;2023-01-09T04:33:31;98395.16;;;7.58;100.00
40073;BME280;25774;52.256;9.356;2023-01-09T04:35:56;98398.16;;;7.64;100.00
40073;BME280;25774;52.256;9.356;2023-01-09T04:38:22;98404.59;;;7.60;100.00
40073;BME280;25774;52.256;9.356;2023-01-09T04:40:48;98394.63;;;7.41;100.00
40073;BME280;25774;52.256;9.356;2023-01-09T04:43:14;98414.78;;;7.41;100.00
40073;BME280;25774;52.256;9.356;2023-01-09T04:45:39;98425.38;;;7.63;100.00
40073;BME280;25774;52.256;9.356;2023-01-09T04:48:06;98423.22;;;7.68;100.00
40073;BME280;25774;52.256;9.356;2023-01-09T04:50:31;98414.19;;;7.13;100.00
40073;BME280;25774;52.256;9.356;2023-01-09T04:52:58;98448.72;;;7.55;100.00
40073;BME280;25774;52.256;9.356;2023-01-09T04:55:23;98446.69;;;7.59;100.00
40073;BME280;25774;52.256;9.356;2023-01-09T04:57:48;98442.59;;;7.43;100.00
40073;BME280;25774;52.256;9.356;2023-01-09T05:00:14;98454.53;;;7.83;100.00
40073;BME280;25774;52.256;9.356;2023-01-09T05:02:40;98439.91;;;7.32;100.00
40073;BME280;25774;52.256;9.356;2023-01-09T05:05:07;98468.72;;;7.45;100.00
40073;BME280;25774;52.256;9.356;2023-01-09T05:07:33;98469.91;;;7.41;100.00
40073;BME280;25774;52.256;9.356;2023-01-09T05:10:00;98481.16;;;7.30;100.00
40073;BME280;25774;52.256;9.356;2023-01-09T05:12:26;98479.09;;;7.22;100.00
40073;BME280;25774;52.256;9.356;2023-01-09T05:14:52;98491.66;;;7.30;100.00
40073;BME280;25774;52.256;9.356;2023-01-09T05:17:17;98500.03;;;7.35;100.00
40073;BME280;25774;52.256;9.356;2023-01-09T05:19:42;98513.91;;;7.37;100.00
40073;BME280;25774;52.256;9.356;2023-01-09T05:22:11;98517.78;;;7.56;100.00
40073;BME280;25774;52.256;9.356;2023-01-09T05:24:36;98519.38;;;7.58;100.00
40073;BME280;25774;52.256;9.356;2023-01-09T05:27:01;98530.16;;;7.66;100.00
40073;BME280;25774;52.256;9.356;2023-01-09T05:29:27;98538.44;;;7.84;100.00
40073;BME280;25774;52.256;9.356;2023-01-09T05:31:52;98543.03;;;7.93;100.00
40073;BME280;25774;52.256;9.356;2023-01-09T05:34:19;98540.53;;;7.68;100.00
40073;BME280;25774;52.256;9.356;2023-01-09T05:36:46;98533.53;;;7.56;100.00
40073;BME280;25774;52.256;9.356;2023-01-09T05:39:11;98549.41;;;7.78;100.00
40073;BME280;25774;52.256;9.356;2023-01-09T05:41:36;98544.38;;;7.51;100.00
40073;BME280;25774;52.256;9.356;2023-01-09T05:44:02;98539.59;;;7.45;100.00
40073;BME280;25774;52.256;9.356;2023-01-09T05:46:29;98547.31;;;7.46;100.00
40073;BME280;25774;52.256;9.356;2023-01-09T05:48:54;98552.91;;;7.42;100.00
40073;BME280;25774;52.256;9.356;2023-01-09T05:51:19;98558.06;;;7.43;100.00
40073;BME280;25774;52.256;9.356;2023-01-09T05:53:45;98560.44;;;7.46;100.00
40073;BME280;25774;52.256;9.356;2023-01-09T05:56:10;98547.28;;;7.35;100.00
40073;BME280;25774;52.256;9.356;2023-01-09T05:58:35;98547.88;;;7.15;100.00
40073;BME280;25774;52.256;9.356;2023-01-09T06:01:01;98548.72;;;7.15;100.00
40073;BME280;25774;52.256;9.356;2023-01-09T06:03:26;98549.31;;;7.19;100.00
40073;BME280;25774;52.256;9.356;2023-01-09T06:05:51;98550.06;;;7.08;100.00
40073;BME280;25774;52.256;9.356;2023-01-09T06:08:17;98549.38;;;7.30;100.00
40073;BME280;25774;52.256;9.356;2023-01-09T06:10:42;98540.97;;;7.01;100.00
40073;BME280;25774;52.256;9.356;2023-01-09T06:13:07;98534.56;;;7.05;100.00
40073;BME280;25774;52.256;9.356;2023-01-09T06:15:33;98527.22;;;6.97;100.00
40073;BME280;25774;52.256;9.356;2023-01-09T06:17:58;98526.41;;;6.84;100.00
40073;BME280;25774;52.256;9.356;2023-01-09T06:20:23;98543.97;;;7.08;100.00
40073;BME280;25774;52.256;9.356;2023-01-09T06:22:49;98524.34;;;6.77;100.00
40073;BME280;25774;52.256;9.356;2023-01-09T06:25:16;98525.59;;;6.71;100.00
40073;BME280;25774;52.256;9.356;2023-01-09T06:27:41;98531.34;;;6.76;100.00
40073;BME280;25774;52.256;9.356;2023-01-09T06:30:09;98528.50;;;6.79;100.00
40073;BME280;25774;52.256;9.356;2023-01-09T06:32:34;98534.72;;;6.78;100.00
40073;BME280;25774;52.256;9.356;2023-01-09T06:34:59;98531.34;;;6.76;100.00
40073;BME280;25774;52.256;9.356;2023-01-09T06:37:25;98540.28;;;6.86;100.00
40073;BME280;25774;52.256;9.356;2023-01-09T06:39:50;98534.84;;;6.51;100.00
40073;BME280;25774;52.256;9.356;2023-01-09T06:42:15;98536.31;;;6.42;100.00
40073;BME280;25774;52.256;9.356;2023-01-09T06:44:41;98536.38;;;6.53;100.00
40073;BME280;25774;52.256;9.356;2023-01-09T06:47:06;98535.56;;;6.53;100.00
40073;BME280;25774;52.256;9.356;2023-01-09T06:49:32;98528.53;;;6.41;100.00
40073;BME280;25774;52.256;9.356;2023-01-09T06:51:57;98555.06;;;6.49;100.00
40073;BME280;25774;52.256;9.356;2023-01-09T06:54:22;98555.16;;;6.47;100.00
40073;BME280;25774;52.256;9.356;2023-01-09T06:56:48;98557.06;;;6.45;100.00
40073;BME280;25774;52.256;9.356;2023-01-09T06:59:13;98559.56;;;6.47;100.00
40073;BME280;25774;52.256;9.356;2023-01-09T07:01:39;98565.53;;;6.62;100.00
40073;BME280;25774;52.256;9.356;2023-01-09T07:04:05;98568.47;;;6.57;100.00
40073;BME280;25774;52.256;9.356;2023-01-09T07:06:31;98575.41;;;6.58;100.00
40073;BME280;25774;52.256;9.356;2023-01-09T07:08:57;98561.56;;;6.43;100.00
40073;BME280;25774;52.256;9.356;2023-01-09T07:11:22;98564.19;;;6.43;100.00
40073;BME280;25774;52.256;9.356;2023-01-09T07:13:48;98569.41;;;6.43;100.00
40073;BME280;25774;52.256;9.356;2023-01-09T07:16:13;98570.88;;;6.35;100.00
40073;BME280;25774;52.256;9.356;2023-01-09T07:18:39;98579.28;;;6.52;100.00
40073;BME280;25774;52.256;9.356;2023-01-09T07:21:05;98568.13;;;6.23;100.00
40073;BME280;25774;52.256;9.356;2023-01-09T07:23:31;98566.97;;;6.27;100.00
40073;BME280;25774;52.256;9.356;2023-01-09T07:25:56;98576.50;;;6.16;100.00
40073;BME280;25774;52.256;9.356;2023-01-09T07:28:22;98583.84;;;6.11;100.00
40073;BME280;25774;52.256;9.356;2023-01-09T07:30:48;98588.25;;;6.23;100.00
40073;BME280;25774;52.256;9.356;2023-01-09T07:33:13;98593.59;;;6.21;100.00
40073;BME280;25774;52.256;9.356;2023-01-09T07:35:39;98596.22;;;6.34;100.00
40073;BME280;25774;52.256;9.356;2023-01-09T07:38:05;98591.16;;;6.18;100.00
40073;BME280;25774;52.256;9.356;2023-01-09T07:40:30;98591.91;;;6.20;100.00
40073;BME280;25774;52.256;9.356;2023-01-09T07:42:55;98595.91;;;6.26;100.00
40073;BME280;25774;52.256;9.356;2023-01-09T07:45:22;98603.38;;;6.32;100.00
40073;BME280;25774;52.256;9.356;2023-01-09T07:47:47;98613.88;;;6.45;100.00
40073;BME280;25774;52.256;9.356;2023-01-09T07:50:12;98616.69;;;6.42;100.00
40073;BME280;25774;52.256;9.356;2023-01-09T07:52:38;98632.53;;;6.79;100.00
40073;BME280;25774;52.256;9.356;2023-01-09T07:55:05;98630.53;;;6.69;100.00
40073;BME280;25774;52.256;9.356;2023-01-09T07:57:30;98628.34;;;6.76;100.00
40073;BME280;25774;52.256;9.356;2023-01-09T07:59:57;98635.91;;;6.68;100.00
40073;BME280;25774;52.256;9.356;2023-01-09T08:02:24;98646.00;;;6.87;100.00
40073;BME280;25774;52.256;9.356;2023-01-09T08:04:51;98651.09;;;7.14;100.00
40073;BME280;25774;52.256;9.356;2023-01-09T08:07:17;98634.97;;;6.94;100.00
40073;BME280;25774;52.256;9.356;2023-01-09T08:09:42;98641.88;;;7.08;100.00
40073;BME280;25774;52.256;9.356;2023-01-09T08:12:08;98629.41;;;6.86;100.00
40073;BME280;25774;52.256;9.356;2023-01-09T08:14:33;98634.34;;;6.91;100.00
40073;BME280;25774;52.256;9.356;2023-01-09T08:17:00;98649.44;;;7.26;100.00
40073;BME280;25774;52.256;9.356;2023-01-09T08:19:26;98636.88;;;7.05;100.00
40073;BME280;25774;52.256;9.356;2023-01-09T08:21:52;98630.75;;;7.05;100.00
40073;BME280;25774;52.256;9.356;2023-01-09T08:24:17;98627.28;;;7.04;100.00
40073;BME280;25774;52.256;9.356;2023-01-09T08:26:42;98630.03;;;7.03;100.00
40073;BME280;25774;52.256;9.356;2023-01-09T08:29:08;98627.50;;;7.01;100.00
40073;BME280;25774;52.256;9.356;2023-01-09T08:31:33;98611.34;;;6.94;100.00
40073;BME280;25774;52.256;9.356;2023-01-09T08:33:58;98624.88;;;7.01;100.00
40073;BME280;25774;52.256;9.356;2023-01-09T08:36:24;98603.59;;;6.93;100.00
40073;BME280;25774;52.256;9.356;2023-01-09T08:38:49;98629.56;;;7.47;100.00
40073;BME280;25774;52.256;9.356;2023-01-09T08:41:15;98615.50;;;7.35;100.00
40073;BME280;25774;52.256;9.356;2023-01-09T08:43:58;98619.34;;;7.55;100.00
40073;BME280;25774;52.256;9.356;2023-01-09T08:46:42;98607.09;;;7.30;100.00
40073;BME280;25774;52.256;9.356;2023-01-09T08:49:26;98622.00;;;7.42;100.00
40073;BME280;25774;52.256;9.356;2023-01-09T08:51:53;98626.84;;;7.36;100.00
40073;BME280;25774;52.256;9.356;2023-01-09T08:54:18;98612.47;;;7.29;100.00
40073;BME280;25774;52.256;9.356;2023-01-09T08:56:43;98601.69;;;7.08;100.00
40073;BME280;25774;52.256;9.356;2023-01-09T08:59:09;98584.63;;;7.02;100.00
40073;BME280;25774;52.256;9.356;2023-01-09T09:01:35;98616.31;;;7.49;100.00
40073;BME280;25774;52.256;9.356;2023-01-09T09:04:00;98600.63;;;7.23;100.00
40073;BME280;25774;52.256;9.356;2023-01-09T09:06:27;98606.13;;;7.81;100.00
40073;BME280;25774;52.256;9.356;2023-01-09T09:08:52;98578.50;;;7.51;100.00
40073;BME280;25774;52.256;9.356;2023-01-09T09:11:17;98579.47;;;7.50;100.00
40073;BME280;25774;52.256;9.356;2023-01-09T09:13:43;98600.81;;;7.69;100.00
40073;BME280;25774;52.256;9.356;2023-01-09T09:16:08;98603.63;;;7.79;100.00
40073;BME280;25774;52.256;9.356;2023-01-09T09:18:33;98600.34;;;7.52;100.00
40073;BME280;25774;52.256;9.356;2023-01-09T09:20:59;98597.56;;;7.66;100.00
40073;BME280;25774;52.256;9.356;2023-01-09T09:23:24;98589.63;;;7.55;100.00
40073;BME280;25774;52.256;9.356;2023-01-09T09:25:49;98608.91;;;7.66;100.00
40073;BME280;25774;52.256;9.356;2023-01-09T09:28:15;98608.97;;;7.78;100.00
40073;BME280;25774;52.256;9.356;2023-01-09T09:30:40;98593.44;;;7.51;100.00
40073;BME280;25774;52.256;9.356;2023-01-09T09:33:06;98599.66;;;7.24;100.00
40073;BME280;25774;52.256;9.356;2023-01-09T09:35:32;98618.28;;;7.58;100.00
40073;BME280;25774;52.256;9.356;2023-01-09T09:38:02;98617.47;;;7.44;100.00
40073;BME280;25774;52.256;9.356;2023-01-09T09:46:08;98631.13;;;7.37;100.00
40073;BME280;25774;52.256;9.356;2023-01-09T09:48:59;98631.47;;;7.32;100.00
40073;BME280;25774;52.256;9.356;2023-01-09T09:56:21;98626.59;;;7.52;100.00
40073;BME280;25774;52.256;9.356;2023-01-09T09:58:57;98621.00;;;7.69;100.00
40073;BME280;25774;52.256;9.356;2023-01-09T10:01:40;98614.16;;;7.66;100.00
40073;BME280;25774;52.256;9.356;2023-01-09T10:04:13;98605.22;;;7.69;100.00
40073;BME280;25774;52.256;9.356;2023-01-09T10:06:43;98619.34;;;8.03;100.00
40073;BME280;25774;52.256;9.356;2023-01-09T10:12:07;98616.41;;;8.08;100.00
40073;BME280;25774;52.256;9.356;2023-01-09T10:14:38;98608.69;;;8.18;100.00
40073;BME280;25774;52.256;9.356;2023-01-09T10:19:55;98602.25;;;8.22;100.00
40073;BME280;25774;52.256;9.356;2023-01-09T10:22:38;98610.22;;;8.44;100.00
40073;BME280;25774;52.256;9.356;2023-01-09T10:30:23;98579.75;;;8.42;100.00
40073;BME280;25774;52.256;9.356;2023-01-09T10:35:44;98559.31;;;8.45;100.00
40073;BME280;25774;52.256;9.356;2023-01-09T10:38:17;98569.03;;;8.67;100.00
40073;BME280;25774;52.256;9.356;2023-01-09T10:40:49;98562.94;;;8.55;100.00
40073;BME280;25774;52.256;9.356;2023-01-09T10:46:16;98532.69;;;8.50;100.00
40073;BME280;25774;52.256;9.356;2023-01-09T10:48:48;98543.84;;;8.87;100.00
40073;BME280;25774;52.256;9.356;2023-01-09T10:51:23;98534.50;;;8.83;100.00
40073;BME280;25774;52.256;9.356;2023-01-09T10:53:54;98528.75;;;8.67;100.00
40073;BME280;25774;52.256;9.356;2023-01-09T10:56:28;98518.59;;;8.51;100.00
40073;BME280;25774;52.256;9.356;2023-01-09T10:58:55;98522.41;;;8.58;100.00
40073;BME280;25774;52.256;9.356;2023-01-09T11:01:26;98508.53;;;8.45;100.00
40073;BME280;25774;52.256;9.356;2023-01-09T11:03:52;98505.09;;;8.55;100.00
40073;BME280;25774;52.256;9.356;2023-01-09T11:06:35;98522.19;;;8.72;100.00
40073;BME280;25774;52.256;9.356;2023-01-09T11:09:03;98504.47;;;8.41;100.00
40073;BME280;25774;52.256;9.356;2023-01-09T11:11:37;98508.19;;;8.60;100.00
40073;BME280;25774;52.256;9.356;2023-01-09T11:16:36;98500.91;;;8.98;100.00
40073;BME280;25774;52.256;9.356;2023-01-09T11:19:02;98484.03;;;8.89;100.00
40073;BME280;25774;52.256;9.356;2023-01-09T11:26:42;98469.19;;;8.32;100.00
40073;BME280;25774;52.256;9.356;2023-01-09T11:29:12;98493.84;;;8.65;100.00
40073;BME280;25774;52.256;9.356;2023-01-09T11:31:40;98487.88;;;8.51;100.00
40073;BME280;25774;52.256;9.356;2023-01-09T11:34:16;98496.38;;;8.66;100.00
40073;BME280;25774;52.256;9.356;2023-01-09T11:36:43;98466.31;;;8.35;100.00
40073;BME280;25774;52.256;9.356;2023-01-09T11:39:30;98506.63;;;8.58;100.00
40073;BME280;25774;52.256;9.356;2023-01-09T11:41:58;98477.53;;;8.14;100.00
40073;BME280;25774;52.256;9.356;2023-01-09T11:44:25;98499.22;;;8.41;100.00
40073;BME280;25774;52.256;9.356;2023-01-09T11:46:51;98482.88;;;8.02;100.00
40073;BME280;25774;52.256;9.356;2023-01-09T11:49:28;98495.03;;;8.38;100.00
40073;BME280;25774;52.256;9.356;2023-01-09T11:52:08;98478.13;;;8.18;100.00
40073;BME280;25774;52.256;9.356;2023-01-09T11:54:36;98493.31;;;8.14;100.00
40073;BME280;25774;52.256;9.356;2023-01-09T11:57:07;98489.16;;;8.34;100.00
40073;BME280;25774;52.256;9.356;2023-01-09T11:59:35;98495.75;;;8.40;100.00
40073;BME280;25774;52.256;9.356;2023-01-09T12:04:58;98485.06;;;8.19;100.00
40073;BME280;25774;52.256;9.356;2023-01-09T12:07:53;98498.00;;;8.33;100.00
40073;BME280;25774;52.256;9.356;2023-01-09T12:13:26;98492.47;;;8.25;100.00
40073;BME280;25774;52.256;9.356;2023-01-09T12:16:25;98487.81;;;8.29;100.00
40073;BME280;25774;52.256;9.356;2023-01-09T12:32:24;98497.75;;;8.36;100.00
40073;BME280;25774;52.256;9.356;2023-01-09T12:37:50;98502.44;;;8.44;100.00
40073;BME280;25774;52.256;9.356;2023-01-09T12:40:32;98491.03;;;8.32;100.00
40073;BME280;25774;52.256;9.356;2023-01-09T12:46:05;98494.63;;;8.31;100.00
40073;BME280;25774;52.256;9.356;2023-01-09T12:51:54;98500.13;;;8.28;100.00
40073;BME280;25774;52.256;9.356;2023-01-09T12:57:14;98529.63;;;8.32;100.00
40073;BME280;25774;52.256;9.356;2023-01-09T13:02:51;98539.22;;;8.33;100.00
40073;BME280;25774;52.256;9.356;2023-01-09T13:05:25;98541.16;;;8.42;100.00
40073;BME280;25774;52.256;9.356;2023-01-09T13:07:59;98544.34;;;8.34;100.00
40073;BME280;25774;52.256;9.356;2023-01-09T13:10:29;98550.59;;;8.45;100.00
40073;BME280;25774;52.256;9.356;2023-01-09T13:12:59;98547.28;;;8.54;100.00
40073;BME280;25774;52.256;9.356;2023-01-09T13:15:41;98542.13;;;8.41;100.00
40073;BME280;25774;52.256;9.356;2023-01-09T13:20:46;98562.31;;;8.41;100.00
40073;BME280;25774;52.256;9.356;2023-01-09T13:23:21;98576.28;;;8.41;100.00
40073;BME280;25774;52.256;9.356;2023-01-09T13:25:53;98589.72;;;8.25;100.00
40073;BME280;25774;52.256;9.356;2023-01-09T13:29:27;98584.28;;;7.80;100.00
40073;BME280;25774;52.256;9.356;2023-01-09T13:34:27;98630.31;;;7.73;100.00
40073;BME280;25774;52.256;9.356;2023-01-09T13:36:54;98644.09;;;7.88;100.00
40073;BME280;25774;52.256;9.356;2023-01-09T13:39:25;98647.06;;;7.83;100.00
40073;BME280;25774;52.256;9.356;2023-01-09T13:41:54;98654.44;;;7.78;100.00
40073;BME280;25774;52.256;9.356;2023-01-09T13:44:40;98663.88;;;7.81;100.00
40073;BME280;25774;52.256;9.356;2023-01-09T13:47:14;98668.88;;;7.73;100.00
40073;BME280;25774;52.256;9.356;2023-01-09T13:52:34;98690.50;;;7.76;100.00
40073;BME280;25774;52.256;9.356;2023-01-09T13:57:37;98670.03;;;7.56;100.00
40073;BME280;25774;52.256;9.356;2023-01-09T14:05:16;98696.13;;;7.83;100.00
40073;BME280;25774;52.256;9.356;2023-01-09T14:08:11;98676.59;;;7.37;100.00
40073;BME280;25774;52.256;9.356;2023-01-09T14:13:12;98661.06;;;7.34;100.00
40073;BME280;25774;52.256;9.356;2023-01-09T14:15:43;98664.38;;;7.49;100.00
40073;BME280;25774;52.256;9.356;2023-01-09T14:18:25;98672.16;;;7.51;100.00
40073;BME280;25774;52.256;9.356;2023-01-09T14:21:03;98676.03;;;7.58;100.00
40073;BME280;25774;52.256;9.356;2023-01-09T14:23:34;98665.38;;;7.22;100.00
40073;BME280;25774;52.256;9.356;2023-01-09T14:26:01;98671.47;;;7.23;100.00
40073;BME280;25774;52.256;9.356;2023-01-09T14:28:33;98684.78;;;7.33;100.00
40073;BME280;25774;52.256;9.356;2023-01-09T14:33:27;98682.75;;;7.49;100.00
40073;BME280;25774;52.256;9.356;2023-01-09T14:36:02;98677.53;;;7.36;100.00
40073;BME280;25774;52.256;9.356;2023-01-09T14:41:15;98675.03;;;7.22;100.00
40073;BME280;25774;52.256;9.356;2023-01-09T14:43:55;98691.19;;;7.41;100.00
40073;BME280;25774;52.256;9.356;2023-01-09T14:46:23;98694.31;;;7.34;100.00
40073;BME280;25774;52.256;9.356;2023-01-09T14:51:45;98706.91;;;7.54;100.00
40073;BME280;25774;52.256;9.356;2023-01-09T14:54:40;98713.09;;;7.66;100.00
40073;BME280;25774;52.256;9.356;2023-01-09T14:57:22;98703.44;;;7.54;100.00
40073;BME280;25774;52.256;9.356;2023-01-09T14:59:58;98712.44;;;7.62;100.00
40073;BME280;25774;52.256;9.356;2023-01-09T15:02:29;98723.97;;;7.85;100.00
40073;BME280;25774;52.256;9.356;2023-01-09T15:05:00;98716.69;;;7.39;100.00
40073;BME280;25774;52.256;9.356;2023-01-09T15:07:27;98730.53;;;7.67;100.00
40073;BME280;25774;52.256;9.356;2023-01-09T15:10:02;98720.25;;;7.38;100.00
40073;BME280;25774;52.256;9.356;2023-01-09T15:12:29;98737.38;;;7.57;100.00